sensor_id;sensor_type;location;lat;lon;timestamp;P1;durP1;ratioP1;P2;durP2;ratioP2
45792;SDS011;31495;42.740;22.908;2022-07-10T00:00:18;11.88;;;10.20;;
45792;SDS011;31495;42.740;22.908;2022-07-10T00:01:20;12.27;;;10.98;;
45792;SDS011;31495;42.740;22.908;2022-07-10T00:02:19;16.33;;;11.50;;
45792;SDS011;31495;42.740;22.908;2022-07-10T00:03:19;15.60;;;11.13;;
45792;SDS011;31495;42.740;22.908;2022-07-10T00:04:18;15.85;;;11.57;;
45792;SDS011;31495;42.740;22.908;2022-07-10T00:05:18;17.33;;;12.48;;
45792;SDS011;31495;42.740;22.908;2022-07-10T00:06:18;17.67;;;11.68;;
45792;SDS011;31495;42.740;22.908;2022-07-10T00:07:17;13.15;;;10.50;;
45792;SDS011;31495;42.740;22.908;2022-07-10T00:08:16;12.52;;;10.75;;
45792;SDS011;31495;42.740;22.908;2022-07-10T00:09:16;13.18;;;10.30;;
45792;SDS011;31495;42.740;22.908;2022-07-10T00:10:16;17.15;;;10.90;;
45792;SDS011;31495;42.740;22.908;2022-07-10T00:11:17;12.30;;;10.57;;
45792;SDS011;31495;42.740;22.908;2022-07-10T00:12:16;12.90;;;10.20;;
45792;SDS011;31495;42.740;22.908;2022-07-10T00:13:16;11.75;;;9.98;;
45792;SDS011;31495;42.740;22.908;2022-07-10T00:14:15;17.55;;;11.00;;
45792;SDS011;31495;42.740;22.908;2022-07-10T00:15:15;12.52;;;11.15;;
45792;SDS011;31495;42.740;22.908;2022-07-10T00:16:17;15.25;;;10.60;;
45792;SDS011;31495;42.740;22.908;2022-07-10T00:17:16;14.68;;;11.82;;
45792;SDS011;31495;42.740;22.908;2022-07-10T00:18:16;14.05;;;10.50;;
45792;SDS011;31495;42.740;22.908;2022-07-10T00:19:15;13.27;;;11.85;;
45792;SDS011;31495;42.740;22.908;2022-07-10T00:20:14;16.48;;;11.40;;
45792;SDS011;31495;42.740;22.908;2022-07-10T00:21:14;15.85;;;10.95;;
45792;SDS011;31495;42.740;22.908;2022-07-10T00:22:15;12.15;;;10.85;;
45792;SDS011;31495;42.740;22.908;2022-07-10T00:23:15;14.93;;;11.80;;
45792;SDS011;31495;42.740;22.908;2022-07-10T00:24:14;14.23;;;12.07;;
45792;SDS011;31495;42.740;22.908;2022-07-10T00:25:14;18.73;;;12.02;;
45792;SDS011;31495;42.740;22.908;2022-07-10T00:26:14;15.90;;;11.40;;
45792;SDS011;31495;42.740;22.908;2022-07-10T00:27:14;14.07;;;11.50;;
45792;SDS011;31495;42.740;22.908;2022-07-10T00:28:14;13.02;;;10.52;;
45792;SDS011;31495;42.740;22.908;2022-07-10T00:29:14;14.35;;;12.45;;
45792;SDS011;31495;42.740;22.908;2022-07-10T00:30:13;14.23;;;11.18;;
45792;SDS011;31495;42.740;22.908;2022-07-10T00:31:13;16.88;;;11.52;;
45792;SDS011;31495;42.740;22.908;2022-07-10T00:32:12;17.98;;;11.43;;
45792;SDS011;31495;42.740;22.908;2022-07-10T00:33:12;14.75;;;12.30;;
45792;SDS011;31495;42.740;22.908;2022-07-10T00:34:11;22.45;;;14.18;;
45792;SDS011;31495;42.740;22.908;2022-07-10T00:35:12;15.38;;;12.40;;
45792;SDS011;31495;42.740;22.908;2022-07-10T00:36:11;16.67;;;11.73;;
45792;SDS011;31495;42.740;22.908;2022-07-10T00:37:10;17.60;;;11.88;;
45792;SDS011;31495;42.740;22.908;2022-07-10T00:38:10;18.45;;;12.73;;
45792;SDS011;31495;42.740;22.908;2022-07-10T00:39:10;16.02;;;11.00;;
45792;SDS011;31495;42.740;22.908;2022-07-10T00:40:09;17.88;;;11.95;;
45792;SDS011;31495;42.740;22.908;2022-07-10T00:41:09;18.77;;;11.90;;
45792;SDS011;31495;42.740;22.908;2022-07-10T00:42:12;15.15;;;11.60;;
45792;SDS011;31495;42.740;22.908;2022-07-10T00:43:12;18.20;;;12.07;;
45792;SDS011;31495;42.740;22.908;2022-07-10T00:44:11;18.30;;;12.52;;
45792;SDS011;31495;42.740;22.908;2022-07-10T00:45:11;23.13;;;13.50;;
45792;SDS011;31495;42.740;22.908;2022-07-10T00:46:11;16.05;;;11.63;;
45792;SDS011;31495;42.740;22.908;2022-07-10T00:47:11;18.95;;;12.65;;
45792;SDS011;31495;42.740;22.908;2022-07-10T00:48:13;19.67;;;13.02;;
45792;SDS011;31495;42.740;22.908;2022-07-10T00:49:12;18.98;;;12.20;;
45792;SDS011;31495;42.740;22.908;2022-07-10T00:50:12;17.73;;;13.00;;
45792;SDS011;31495;42.740;22.908;2022-07-10T00:51:12;16.20;;;12.15;;
45792;SDS011;31495;42.740;22.908;2022-07-10T00:52:13;17.00;;;13.60;;
45792;SDS011;31495;42.740;22.908;2022-07-10T00:53:15;17.63;;;13.02;;
45792;SDS011;31495;42.740;22.908;2022-07-10T00:54:14;16.42;;;12.90;;
45792;SDS011;31495;42.740;22.908;2022-07-10T00:55:16;18.42;;;12.80;;
45792;SDS011;31495;42.740;22.908;2022-07-10T00:56:19;20.38;;;12.82;;
45792;SDS011;31495;42.740;22.908;2022-07-10T00:57:21;18.95;;;13.35;;
45792;SDS011;31495;42.740;22.908;2022-07-10T00:58:22;16.02;;;13.27;;
45792;SDS011;31495;42.740;22.908;2022-07-10T00:59:22;17.33;;;13.18;;
45792;SDS011;31495;42.740;22.908;2022-07-10T01:00:22;18.92;;;13.27;;
45792;SDS011;31495;42.740;22.908;2022-07-10T01:01:23;16.73;;;13.50;;
45792;SDS011;31495;42.740;22.908;2022-07-10T01:02:23;17.73;;;14.55;;
45792;SDS011;31495;42.740;22.908;2022-07-10T01:03:23;18.25;;;13.32;;
45792;SDS011;31495;42.740;22.908;2022-07-10T01:04:22;22.77;;;13.18;;
45792;SDS011;31495;42.740;22.908;2022-07-10T01:05:23;20.30;;;14.10;;
45792;SDS011;31495;42.740;22.908;2022-07-10T01:06:22;17.70;;;13.55;;
45792;SDS011;31495;42.740;22.908;2022-07-10T01:07:21;14.48;;;12.95;;
45792;SDS011;31495;42.740;22.908;2022-07-10T01:08:21;17.15;;;13.20;;
45792;SDS011;31495;42.740;22.908;2022-07-10T01:09:20;16.55;;;12.35;;
45792;SDS011;31495;42.740;22.908;2022-07-10T01:10:20;23.13;;;14.48;;
45792;SDS011;31495;42.740;22.908;2022-07-10T01:11:19;22.95;;;15.02;;
45792;SDS011;31495;42.740;22.908;2022-07-10T01:12:20;19.42;;;15.20;;
45792;SDS011;31495;42.740;22.908;2022-07-10T01:13:21;24.90;;;14.40;;
45792;SDS011;31495;42.740;22.908;2022-07-10T01:14:21;20.15;;;14.75;;
45792;SDS011;31495;42.740;22.908;2022-07-10T01:15:21;28.63;;;15.95;;
45792;SDS011;31495;42.740;22.908;2022-07-10T01:16:20;22.98;;;15.00;;
45792;SDS011;31495;42.740;22.908;2022-07-10T01:17:21;18.52;;;15.02;;
45792;SDS011;31495;42.740;22.908;2022-07-10T01:18:21;20.70;;;15.27;;
45792;SDS011;31495;42.740;22.908;2022-07-10T01:19:21;24.45;;;14.68;;
45792;SDS011;31495;42.740;22.908;2022-07-10T01:20:21;19.38;;;15.23;;
45792;SDS011;31495;42.740;22.908;2022-07-10T01:21:29;19.35;;;14.85;;
45792;SDS011;31495;42.740;22.908;2022-07-10T01:22:33;22.98;;;15.90;;
45792;SDS011;31495;42.740;22.908;2022-07-10T01:23:33;19.73;;;15.30;;
45792;SDS011;31495;42.740;22.908;2022-07-10T01:24:32;22.00;;;15.27;;
45792;SDS011;31495;42.740;22.908;2022-07-10T01:25:32;21.15;;;15.27;;
45792;SDS011;31495;42.740;22.908;2022-07-10T01:26:32;19.33;;;15.10;;
45792;SDS011;31495;42.740;22.908;2022-07-10T01:27:31;21.83;;;15.88;;
45792;SDS011;31495;42.740;22.908;2022-07-10T01:28:30;18.10;;;15.15;;
45792;SDS011;31495;42.740;22.908;2022-07-10T01:29:30;22.35;;;15.60;;
45792;SDS011;31495;42.740;22.908;2022-07-10T01:30:31;22.65;;;15.38;;
45792;SDS011;31495;42.740;22.908;2022-07-10T01:31:30;17.67;;;14.27;;
45792;SDS011;31495;42.740;22.908;2022-07-10T01:32:40;18.33;;;14.75;;
45792;SDS011;31495;42.740;22.908;2022-07-10T01:33:40;21.77;;;14.75;;
45792;SDS011;31495;42.740;22.908;2022-07-10T01:34:40;19.98;;;13.93;;
45792;SDS011;31495;42.740;22.908;2022-07-10T01:35:40;19.13;;;14.52;;
45792;SDS011;31495;42.740;22.908;2022-07-10T01:36:40;19.35;;;15.02;;
45792;SDS011;31495;42.740;22.908;2022-07-10T01:37:40;19.75;;;15.30;;
45792;SDS011;31495;42.740;22.908;2022-07-10T01:38:40;17.35;;;13.65;;
45792;SDS011;31495;42.740;22.908;2022-07-10T01:39:40;24.65;;;14.40;;
45792;SDS011;31495;42.740;22.908;2022-07-10T01:40:39;19.50;;;14.10;;
45792;SDS011;31495;42.740;22.908;2022-07-10T01:41:39;19.60;;;13.48;;
45792;SDS011;31495;42.740;22.908;2022-07-10T01:42:38;23.10;;;14.43;;
45792;SDS011;31495;42.740;22.908;2022-07-10T01:43:38;23.08;;;14.38;;
45792;SDS011;31495;42.740;22.908;2022-07-10T01:44:44;18.02;;;13.55;;
45792;SDS011;31495;42.740;22.908;2022-07-10T01:45:43;16.58;;;13.35;;
45792;SDS011;31495;42.740;22.908;2022-07-10T01:46:44;22.13;;;14.82;;
45792;SDS011;31495;42.740;22.908;2022-07-10T01:47:44;16.67;;;13.48;;
45792;SDS011;31495;42.740;22.908;2022-07-10T01:48:44;17.05;;;12.90;;
45792;SDS011;31495;42.740;22.908;2022-07-10T01:49:44;18.75;;;13.60;;
45792;SDS011;31495;42.740;22.908;2022-07-10T01:50:43;14.55;;;12.63;;
45792;SDS011;31495;42.740;22.908;2022-07-10T01:51:43;17.42;;;13.77;;
45792;SDS011;31495;42.740;22.908;2022-07-10T01:52:42;19.15;;;13.82;;
45792;SDS011;31495;42.740;22.908;2022-07-10T01:53:41;16.48;;;13.13;;
45792;SDS011;31495;42.740;22.908;2022-07-10T01:54:41;17.08;;;13.25;;
45792;SDS011;31495;42.740;22.908;2022-07-10T01:55:41;21.23;;;13.73;;
45792;SDS011;31495;42.740;22.908;2022-07-10T01:56:40;14.82;;;12.50;;
45792;SDS011;31495;42.740;22.908;2022-07-10T01:57:40;18.55;;;13.20;;
45792;SDS011;31495;42.740;22.908;2022-07-10T01:58:39;14.50;;;12.98;;
45792;SDS011;31495;42.740;22.908;2022-07-10T01:59:40;19.55;;;13.23;;
45792;SDS011;31495;42.740;22.908;2022-07-10T02:00:39;16.35;;;13.05;;
45792;SDS011;31495;42.740;22.908;2022-07-10T02:01:39;15.85;;;12.40;;
45792;SDS011;31495;42.740;22.908;2022-07-10T02:02:38;18.85;;;12.27;;
45792;SDS011;31495;42.740;22.908;2022-07-10T02:03:38;16.73;;;12.43;;
45792;SDS011;31495;42.740;22.908;2022-07-10T02:04:56;18.27;;;12.20;;
45792;SDS011;31495;42.740;22.908;2022-07-10T02:05:56;19.70;;;12.23;;
45792;SDS011;31495;42.740;22.908;2022-07-10T02:06:55;15.25;;;11.52;;
45792;SDS011;31495;42.740;22.908;2022-07-10T02:07:55;18.60;;;12.15;;
45792;SDS011;31495;42.740;22.908;2022-07-10T02:08:54;17.95;;;12.20;;
45792;SDS011;31495;42.740;22.908;2022-07-10T02:09:54;20.02;;;11.55;;
45792;SDS011;31495;42.740;22.908;2022-07-10T02:10:53;15.77;;;12.02;;
45792;SDS011;31495;42.740;22.908;2022-07-10T02:11:53;15.57;;;11.13;;
45792;SDS011;31495;42.740;22.908;2022-07-10T02:12:53;14.38;;;12.10;;
45792;SDS011;31495;42.740;22.908;2022-07-10T02:13:52;14.30;;;11.85;;
45792;SDS011;31495;42.740;22.908;2022-07-10T02:14:52;15.82;;;11.40;;
45792;SDS011;31495;42.740;22.908;2022-07-10T02:15:51;14.65;;;11.40;;
45792;SDS011;31495;42.740;22.908;2022-07-10T02:16:50;14.85;;;10.82;;
45792;SDS011;31495;42.740;22.908;2022-07-10T02:17:50;14.23;;;11.65;;
45792;SDS011;31495;42.740;22.908;2022-07-10T02:18:50;16.73;;;11.38;;
45792;SDS011;31495;42.740;22.908;2022-07-10T02:19:49;16.13;;;11.30;;
45792;SDS011;31495;42.740;22.908;2022-07-10T02:20:48;15.68;;;11.70;;
45792;SDS011;31495;42.740;22.908;2022-07-10T02:21:48;13.98;;;11.00;;
45792;SDS011;31495;42.740;22.908;2022-07-10T02:22:48;20.55;;;11.25;;
45792;SDS011;31495;42.740;22.908;2022-07-10T02:23:48;13.85;;;12.00;;
45792;SDS011;31495;42.740;22.908;2022-07-10T02:24:47;13.77;;;11.70;;
45792;SDS011;31495;42.740;22.908;2022-07-10T02:25:46;15.40;;;11.27;;
45792;SDS011;31495;42.740;22.908;2022-07-10T02:26:46;13.77;;;11.50;;
45792;SDS011;31495;42.740;22.908;2022-07-10T02:27:45;15.50;;;10.93;;
45792;SDS011;31495;42.740;22.908;2022-07-10T02:28:45;13.82;;;11.80;;
45792;SDS011;31495;42.740;22.908;2022-07-10T02:29:44;16.90;;;12.82;;
45792;SDS011;31495;42.740;22.908;2022-07-10T02:30:44;17.13;;;12.23;;
45792;SDS011;31495;42.740;22.908;2022-07-10T02:31:43;18.10;;;12.55;;
45792;SDS011;31495;42.740;22.908;2022-07-10T02:32:43;15.57;;;12.05;;
45792;SDS011;31495;42.740;22.908;2022-07-10T02:33:42;20.80;;;11.77;;
45792;SDS011;31495;42.740;22.908;2022-07-10T02:34:42;17.45;;;11.55;;
45792;SDS011;31495;42.740;22.908;2022-07-10T02:35:41;16.95;;;11.90;;
45792;SDS011;31495;42.740;22.908;2022-07-10T02:36:41;18.50;;;10.98;;
45792;SDS011;31495;42.740;22.908;2022-07-10T02:37:40;18.73;;;12.73;;
45792;SDS011;31495;42.740;22.908;2022-07-10T02:38:40;14.80;;;11.32;;
45792;SDS011;31495;42.740;22.908;2022-07-10T02:39:39;15.95;;;11.77;;
45792;SDS011;31495;42.740;22.908;2022-07-10T02:40:39;16.65;;;12.55;;
45792;SDS011;31495;42.740;22.908;2022-07-10T02:41:39;18.23;;;12.02;;
45792;SDS011;31495;42.740;22.908;2022-07-10T02:42:39;16.15;;;12.68;;
45792;SDS011;31495;42.740;22.908;2022-07-10T02:43:40;17.83;;;12.85;;
45792;SDS011;31495;42.740;22.908;2022-07-10T02:44:39;21.17;;;12.75;;
45792;SDS011;31495;42.740;22.908;2022-07-10T02:45:38;25.02;;;13.00;;
45792;SDS011;31495;42.740;22.908;2022-07-10T02:46:38;16.17;;;13.20;;
45792;SDS011;31495;42.740;22.908;2022-07-10T02:47:37;17.80;;;12.65;;
45792;SDS011;31495;42.740;22.908;2022-07-10T02:48:37;17.50;;;12.88;;
45792;SDS011;31495;42.740;22.908;2022-07-10T02:49:36;18.90;;;11.27;;
45792;SDS011;31495;42.740;22.908;2022-07-10T02:50:36;14.80;;;11.60;;
45792;SDS011;31495;42.740;22.908;2022-07-10T02:51:35;14.27;;;11.45;;
45792;SDS011;31495;42.740;22.908;2022-07-10T02:52:35;18.05;;;11.15;;
45792;SDS011;31495;42.740;22.908;2022-07-10T02:53:34;14.38;;;12.10;;
45792;SDS011;31495;42.740;22.908;2022-07-10T02:54:34;16.08;;;10.77;;
45792;SDS011;31495;42.740;22.908;2022-07-10T02:55:34;16.52;;;11.63;;
45792;SDS011;31495;42.740;22.908;2022-07-10T02:56:33;13.65;;;9.95;;
45792;SDS011;31495;42.740;22.908;2022-07-10T02:57:35;14.10;;;11.18;;
45792;SDS011;31495;42.740;22.908;2022-07-10T02:58:34;15.40;;;11.38;;
45792;SDS011;31495;42.740;22.908;2022-07-10T02:59:34;16.90;;;11.45;;
45792;SDS011;31495;42.740;22.908;2022-07-10T03:00:33;16.42;;;10.43;;
45792;SDS011;31495;42.740;22.908;2022-07-10T03:01:33;13.27;;;11.20;;
45792;SDS011;31495;42.740;22.908;2022-07-10T03:02:32;18.17;;;10.80;;
45792;SDS011;31495;42.740;22.908;2022-07-10T03:03:32;14.02;;;10.90;;
45792;SDS011;31495;42.740;22.908;2022-07-10T03:04:32;13.65;;;10.52;;
45792;SDS011;31495;42.740;22.908;2022-07-10T03:05:31;13.93;;;10.95;;
45792;SDS011;31495;42.740;22.908;2022-07-10T03:06:31;15.98;;;10.20;;
45792;SDS011;31495;42.740;22.908;2022-07-10T03:07:30;13.65;;;9.52;;
45792;SDS011;31495;42.740;22.908;2022-07-10T03:08:29;15.27;;;9.40;;
45792;SDS011;31495;42.740;22.908;2022-07-10T03:09:29;11.38;;;9.02;;
45792;SDS011;31495;42.740;22.908;2022-07-10T03:10:28;13.80;;;9.60;;
45792;SDS011;31495;42.740;22.908;2022-07-10T03:11:28;17.63;;;9.25;;
45792;SDS011;31495;42.740;22.908;2022-07-10T03:12:27;14.27;;;10.02;;
45792;SDS011;31495;42.740;22.908;2022-07-10T03:13:26;16.40;;;9.25;;
45792;SDS011;31495;42.740;22.908;2022-07-10T03:14:26;14.50;;;10.57;;
45792;SDS011;31495;42.740;22.908;2022-07-10T03:15:25;16.38;;;10.55;;
45792;SDS011;31495;42.740;22.908;2022-07-10T03:16:25;14.95;;;9.98;;
45792;SDS011;31495;42.740;22.908;2022-07-10T03:17:25;11.07;;;9.73;;
45792;SDS011;31495;42.740;22.908;2022-07-10T03:18:24;14.00;;;9.85;;
45792;SDS011;31495;42.740;22.908;2022-07-10T03:19:24;13.23;;;10.18;;
45792;SDS011;31495;42.740;22.908;2022-07-10T03:20:23;12.05;;;9.70;;
45792;SDS011;31495;42.740;22.908;2022-07-10T03:21:23;12.93;;;9.45;;
45792;SDS011;31495;42.740;22.908;2022-07-10T03:22:23;13.15;;;10.05;;
45792;SDS011;31495;42.740;22.908;2022-07-10T03:23:22;14.15;;;10.23;;
45792;SDS011;31495;42.740;22.908;2022-07-10T03:24:22;16.77;;;9.63;;
45792;SDS011;31495;42.740;22.908;2022-07-10T03:25:21;13.93;;;10.00;;
45792;SDS011;31495;42.740;22.908;2022-07-10T03:26:21;14.60;;;10.43;;
45792;SDS011;31495;42.740;22.908;2022-07-10T03:27:21;12.65;;;9.98;;
45792;SDS011;31495;42.740;22.908;2022-07-10T03:28:20;13.15;;;10.65;;
45792;SDS011;31495;42.740;22.908;2022-07-10T03:29:20;14.32;;;10.10;;
45792;SDS011;31495;42.740;22.908;2022-07-10T03:30:19;15.77;;;10.70;;
45792;SDS011;31495;42.740;22.908;2022-07-10T03:31:19;12.45;;;10.25;;
45792;SDS011;31495;42.740;22.908;2022-07-10T03:32:18;13.85;;;10.40;;
45792;SDS011;31495;42.740;22.908;2022-07-10T03:33:18;19.80;;;11.10;;
45792;SDS011;31495;42.740;22.908;2022-07-10T03:34:17;22.63;;;11.55;;
45792;SDS011;31495;42.740;22.908;2022-07-10T03:35:17;18.05;;;9.75;;
45792;SDS011;31495;42.740;22.908;2022-07-10T03:36:16;15.05;;;11.43;;
45792;SDS011;31495;42.740;22.908;2022-07-10T03:37:16;15.98;;;11.25;;
45792;SDS011;31495;42.740;22.908;2022-07-10T03:38:15;14.70;;;10.63;;
45792;SDS011;31495;42.740;22.908;2022-07-10T03:39:14;18.25;;;11.13;;
45792;SDS011;31495;42.740;22.908;2022-07-10T03:40:14;20.33;;;10.18;;
45792;SDS011;31495;42.740;22.908;2022-07-10T03:41:13;12.05;;;8.77;;
45792;SDS011;31495;42.740;22.908;2022-07-10T03:42:13;13.20;;;10.20;;
45792;SDS011;31495;42.740;22.908;2022-07-10T03:43:16;14.02;;;9.85;;
45792;SDS011;31495;42.740;22.908;2022-07-10T03:44:15;12.93;;;9.50;;
45792;SDS011;31495;42.740;22.908;2022-07-10T03:45:15;13.25;;;9.90;;
45792;SDS011;31495;42.740;22.908;2022-07-10T03:46:14;15.30;;;10.48;;
45792;SDS011;31495;42.740;22.908;2022-07-10T03:47:13;16.23;;;9.60;;
45792;SDS011;31495;42.740;22.908;2022-07-10T03:48:13;14.70;;;9.68;;
45792;SDS011;31495;42.740;22.908;2022-07-10T03:49:12;15.43;;;9.65;;
45792;SDS011;31495;42.740;22.908;2022-07-10T03:50:12;12.10;;;9.93;;
45792;SDS011;31495;42.740;22.908;2022-07-10T03:51:11;16.23;;;9.90;;
45792;SDS011;31495;42.740;22.908;2022-07-10T03:52:10;14.00;;;9.85;;
45792;SDS011;31495;42.740;22.908;2022-07-10T03:53:10;12.38;;;9.55;;
45792;SDS011;31495;42.740;22.908;2022-07-10T03:54:09;13.13;;;10.70;;
45792;SDS011;31495;42.740;22.908;2022-07-10T03:55:09;18.58;;;11.30;;
45792;SDS011;31495;42.740;22.908;2022-07-10T03:56:08;13.13;;;10.43;;
45792;SDS011;31495;42.740;22.908;2022-07-10T03:57:07;14.52;;;9.60;;
45792;SDS011;31495;42.740;22.908;2022-07-10T03:58:26;13.70;;;9.63;;
45792;SDS011;31495;42.740;22.908;2022-07-10T03:59:26;15.98;;;9.88;;
45792;SDS011;31495;42.740;22.908;2022-07-10T04:00:26;14.75;;;10.77;;
45792;SDS011;31495;42.740;22.908;2022-07-10T04:01:32;15.43;;;10.98;;
45792;SDS011;31495;42.740;22.908;2022-07-10T04:02:32;15.02;;;9.77;;
45792;SDS011;31495;42.740;22.908;2022-07-10T04:03:31;11.95;;;9.63;;
45792;SDS011;31495;42.740;22.908;2022-07-10T04:04:31;18.20;;;9.65;;
45792;SDS011;31495;42.740;22.908;2022-07-10T04:05:30;15.77;;;9.75;;
45792;SDS011;31495;42.740;22.908;2022-07-10T04:06:30;13.63;;;10.63;;
45792;SDS011;31495;42.740;22.908;2022-07-10T04:07:29;14.70;;;9.75;;
45792;SDS011;31495;42.740;22.908;2022-07-10T04:08:29;13.57;;;10.98;;
45792;SDS011;31495;42.740;22.908;2022-07-10T04:09:28;15.85;;;10.98;;
45792;SDS011;31495;42.740;22.908;2022-07-10T04:10:28;14.10;;;10.38;;
45792;SDS011;31495;42.740;22.908;2022-07-10T04:11:28;13.43;;;10.68;;
45792;SDS011;31495;42.740;22.908;2022-07-10T04:12:28;14.68;;;10.82;;
45792;SDS011;31495;42.740;22.908;2022-07-10T04:13:27;13.05;;;10.23;;
45792;SDS011;31495;42.740;22.908;2022-07-10T04:14:27;14.05;;;10.57;;
45792;SDS011;31495;42.740;22.908;2022-07-10T04:15:26;15.45;;;10.60;;
45792;SDS011;31495;42.740;22.908;2022-07-10T04:16:26;11.95;;;9.73;;
45792;SDS011;31495;42.740;22.908;2022-07-10T04:17:26;14.27;;;10.88;;
45792;SDS011;31495;42.740;22.908;2022-07-10T04:18:25;16.08;;;11.10;;
45792;SDS011;31495;42.740;22.908;2022-07-10T04:19:24;14.23;;;11.15;;
45792;SDS011;31495;42.740;22.908;2022-07-10T04:20:24;15.25;;;9.98;;
45792;SDS011;31495;42.740;22.908;2022-07-10T04:21:24;17.90;;;10.55;;
45792;SDS011;31495;42.740;22.908;2022-07-10T04:22:23;16.58;;;10.20;;
45792;SDS011;31495;42.740;22.908;2022-07-10T04:23:22;13.30;;;10.43;;
45792;SDS011;31495;42.740;22.908;2022-07-10T04:24:22;15.00;;;11.65;;
45792;SDS011;31495;42.740;22.908;2022-07-10T04:25:21;16.95;;;10.45;;
45792;SDS011;31495;42.740;22.908;2022-07-10T04:26:20;21.52;;;10.07;;
45792;SDS011;31495;42.740;22.908;2022-07-10T04:27:20;12.82;;;10.13;;
45792;SDS011;31495;42.740;22.908;2022-07-10T04:28:20;16.65;;;9.90;;
45792;SDS011;31495;42.740;22.908;2022-07-10T04:29:19;13.90;;;10.73;;
45792;SDS011;31495;42.740;22.908;2022-07-10T04:30:19;17.85;;;11.40;;
45792;SDS011;31495;42.740;22.908;2022-07-10T04:31:18;15.40;;;10.10;;
45792;SDS011;31495;42.740;22.908;2022-07-10T04:32:18;19.60;;;10.77;;
45792;SDS011;31495;42.740;22.908;2022-07-10T04:33:18;13.73;;;10.18;;
45792;SDS011;31495;42.740;22.908;2022-07-10T04:34:17;12.60;;;10.32;;
45792;SDS011;31495;42.740;22.908;2022-07-10T04:35:17;13.70;;;10.38;;
45792;SDS011;31495;42.740;22.908;2022-07-10T04:36:16;15.45;;;10.43;;
45792;SDS011;31495;42.740;22.908;2022-07-10T04:37:16;12.80;;;10.70;;
45792;SDS011;31495;42.740;22.908;2022-07-10T04:38:16;12.68;;;9.70;;
45792;SDS011;31495;42.740;22.908;2022-07-10T04:39:15;13.52;;;9.50;;
45792;SDS011;31495;42.740;22.908;2022-07-10T04:40:14;11.95;;;10.20;;
45792;SDS011;31495;42.740;22.908;2022-07-10T04:41:14;13.98;;;10.50;;
45792;SDS011;31495;42.740;22.908;2022-07-10T04:42:14;16.95;;;10.73;;
45792;SDS011;31495;42.740;22.908;2022-07-10T04:43:13;12.55;;;9.52;;
45792;SDS011;31495;42.740;22.908;2022-07-10T04:44:13;12.13;;;9.48;;
45792;SDS011;31495;42.740;22.908;2022-07-10T04:45:12;15.95;;;10.32;;
45792;SDS011;31495;42.740;22.908;2022-07-10T04:46:12;14.88;;;10.70;;
45792;SDS011;31495;42.740;22.908;2022-07-10T04:47:11;14.10;;;10.30;;
45792;SDS011;31495;42.740;22.908;2022-07-10T04:48:11;13.77;;;9.10;;
45792;SDS011;31495;42.740;22.908;2022-07-10T04:49:11;14.65;;;10.13;;
45792;SDS011;31495;42.740;22.908;2022-07-10T04:50:11;13.27;;;9.70;;
45792;SDS011;31495;42.740;22.908;2022-07-10T04:51:10;13.88;;;9.98;;
45792;SDS011;31495;42.740;22.908;2022-07-10T04:52:10;15.68;;;9.30;;
45792;SDS011;31495;42.740;22.908;2022-07-10T04:53:09;17.33;;;10.32;;
45792;SDS011;31495;42.740;22.908;2022-07-10T04:54:09;11.82;;;9.98;;
45792;SDS011;31495;42.740;22.908;2022-07-10T04:55:08;13.63;;;10.75;;
45792;SDS011;31495;42.740;22.908;2022-07-10T04:56:07;13.95;;;10.55;;
45792;SDS011;31495;42.740;22.908;2022-07-10T04:57:07;13.45;;;10.30;;
45792;SDS011;31495;42.740;22.908;2022-07-10T04:58:06;12.77;;;10.05;;
45792;SDS011;31495;42.740;22.908;2022-07-10T04:59:06;19.10;;;10.32;;
45792;SDS011;31495;42.740;22.908;2022-07-10T05:00:05;14.90;;;10.68;;
45792;SDS011;31495;42.740;22.908;2022-07-10T05:01:05;16.50;;;10.57;;
45792;SDS011;31495;42.740;22.908;2022-07-10T05:02:05;11.55;;;9.73;;
45792;SDS011;31495;42.740;22.908;2022-07-10T05:03:06;13.35;;;10.32;;
45792;SDS011;31495;42.740;22.908;2022-07-10T05:04:05;13.35;;;9.63;;
45792;SDS011;31495;42.740;22.908;2022-07-10T05:05:05;17.20;;;10.23;;
45792;SDS011;31495;42.740;22.908;2022-07-10T05:06:04;14.85;;;9.98;;
45792;SDS011;31495;42.740;22.908;2022-07-10T05:07:04;16.30;;;10.52;;
45792;SDS011;31495;42.740;22.908;2022-07-10T05:08:04;17.15;;;11.10;;
45792;SDS011;31495;42.740;22.908;2022-07-10T05:09:03;12.35;;;8.57;;
45792;SDS011;31495;42.740;22.908;2022-07-10T05:10:03;15.07;;;9.55;;
45792;SDS011;31495;42.740;22.908;2022-07-10T05:11:04;18.40;;;9.98;;
45792;SDS011;31495;42.740;22.908;2022-07-10T05:12:04;15.00;;;10.88;;
45792;SDS011;31495;42.740;22.908;2022-07-10T05:13:03;13.10;;;10.35;;
45792;SDS011;31495;42.740;22.908;2022-07-10T05:14:03;15.93;;;9.88;;
45792;SDS011;31495;42.740;22.908;2022-07-10T05:15:02;14.82;;;9.68;;
45792;SDS011;31495;42.740;22.908;2022-07-10T05:16:02;16.05;;;10.48;;
45792;SDS011;31495;42.740;22.908;2022-07-10T05:17:03;15.00;;;11.30;;
45792;SDS011;31495;42.740;22.908;2022-07-10T05:18:02;13.75;;;9.73;;
45792;SDS011;31495;42.740;22.908;2022-07-10T05:19:03;10.70;;;9.10;;
45792;SDS011;31495;42.740;22.908;2022-07-10T05:20:03;14.32;;;9.55;;
45792;SDS011;31495;42.740;22.908;2022-07-10T05:21:02;12.18;;;9.98;;
45792;SDS011;31495;42.740;22.908;2022-07-10T05:22:02;11.75;;;9.63;;
45792;SDS011;31495;42.740;22.908;2022-07-10T05:23:02;10.50;;;8.93;;
45792;SDS011;31495;42.740;22.908;2022-07-10T05:24:01;13.82;;;9.05;;
45792;SDS011;31495;42.740;22.908;2022-07-10T05:25:01;10.65;;;9.55;;
45792;SDS011;31495;42.740;22.908;2022-07-10T05:26:00;10.25;;;9.13;;
45792;SDS011;31495;42.740;22.908;2022-07-10T05:27:00;13.50;;;9.57;;
45792;SDS011;31495;42.740;22.908;2022-07-10T05:27:59;12.90;;;8.75;;
45792;SDS011;31495;42.740;22.908;2022-07-10T05:28:59;10.43;;;7.97;;
45792;SDS011;31495;42.740;22.908;2022-07-10T05:29:58;12.45;;;8.15;;
45792;SDS011;31495;42.740;22.908;2022-07-10T05:30:58;11.55;;;8.10;;
45792;SDS011;31495;42.740;22.908;2022-07-10T05:31:57;9.40;;;7.35;;
45792;SDS011;31495;42.740;22.908;2022-07-10T05:32:57;9.20;;;7.45;;
45792;SDS011;31495;42.740;22.908;2022-07-10T05:33:56;11.73;;;7.28;;
45792;SDS011;31495;42.740;22.908;2022-07-10T05:34:59;12.00;;;7.53;;
45792;SDS011;31495;42.740;22.908;2022-07-10T05:35:59;8.13;;;7.30;;
45792;SDS011;31495;42.740;22.908;2022-07-10T05:36:59;11.63;;;7.38;;
45792;SDS011;31495;42.740;22.908;2022-07-10T05:37:58;10.38;;;6.90;;
45792;SDS011;31495;42.740;22.908;2022-07-10T05:38:58;8.77;;;7.35;;
45792;SDS011;31495;42.740;22.908;2022-07-10T05:39:57;14.48;;;7.35;;
45792;SDS011;31495;42.740;22.908;2022-07-10T05:40:57;10.77;;;6.68;;
45792;SDS011;31495;42.740;22.908;2022-07-10T05:41:56;8.30;;;5.75;;
45792;SDS011;31495;42.740;22.908;2022-07-10T05:42:56;8.82;;;6.40;;
45792;SDS011;31495;42.740;22.908;2022-07-10T05:43:56;9.65;;;6.97;;
45792;SDS011;31495;42.740;22.908;2022-07-10T05:44:56;8.30;;;6.55;;
45792;SDS011;31495;42.740;22.908;2022-07-10T05:45:55;14.85;;;6.05;;